createdAt,value
2018-04-23T00:02:22.788Z,18.00
2018-04-23T00:04:53.160Z,17.90
2018-04-23T00:07:23.513Z,17.90
2018-04-23T00:09:53.877Z,18.00
2018-04-23T00:12:25.011Z,17.90
2018-04-23T00:14:55.357Z,17.90
2018-04-23T00:17:26.492Z,17.90
2018-04-23T00:19:58.617Z,17.80
2018-04-23T00:22:48.107Z,17.70
2018-04-23T00:25:18.457Z,17.70
2018-04-23T00:27:49.572Z,17.50
2018-04-23T00:30:19.942Z,17.50
2018-04-23T00:32:50.287Z,17.70
2018-04-23T00:35:21.664Z,17.60
2018-04-23T00:37:52.044Z,17.40
2018-04-23T00:40:23.160Z,17.30
2018-04-23T00:42:53.523Z,17.20
2018-04-23T00:45:23.901Z,17.20
2018-04-23T00:47:54.263Z,17.40
2018-04-23T00:50:25.384Z,17.10
2018-04-23T00:53:37.868Z,17.10
2018-04-23T00:56:15.617Z,16.90
2018-04-23T00:58:46.767Z,17.20
2018-04-23T01:01:17.897Z,17.00
2018-04-23T01:03:49.259Z,16.80
2018-04-23T01:06:20.395Z,16.70
2018-04-23T01:08:51.043Z,16.70
2018-04-23T01:11:24.153Z,16.80
2018-04-23T01:13:54.524Z,16.80
2018-04-23T01:16:24.885Z,16.90
2018-04-23T01:18:58.044Z,16.70
2018-04-23T01:21:28.420Z,16.70
2018-04-23T01:23:58.781Z,16.80
2018-04-23T01:26:29.139Z,16.70
2018-04-23T01:29:00.275Z,16.60
2018-04-23T01:31:31.387Z,16.70
2018-04-23T01:34:23.927Z,16.60
2018-04-23T01:36:56.339Z,16.60
2018-04-23T01:39:27.702Z,16.70
2018-04-23T01:41:58.836Z,16.50
2018-04-23T01:44:29.976Z,16.50
2018-04-23T01:47:01.084Z,16.50
2018-04-23T01:49:33.508Z,16.50
2018-04-23T01:52:03.854Z,16.40
2018-04-23T01:54:34.216Z,16.40
2018-04-23T01:57:04.606Z,16.40
2018-04-23T01:59:34.946Z,16.40
2018-04-23T02:02:07.342Z,16.50
2018-04-23T02:04:37.704Z,16.60
2018-04-23T02:07:08.055Z,16.70
2018-04-23T02:09:38.396Z,16.60
2018-04-23T02:12:08.781Z,16.40
2018-04-23T02:14:39.890Z,16.10
2018-04-23T02:17:10.250Z,16.10
2018-04-23T02:19:40.631Z,16.10
2018-04-23T02:22:14.041Z,16.30
2018-04-23T02:24:44.380Z,16.20
2018-04-23T02:27:15.035Z,16.00
2018-04-23T02:29:46.155Z,15.90
2018-04-23T02:32:16.498Z,15.80
2018-04-23T02:34:46.885Z,16.10
2018-04-23T02:37:38.657Z,15.80
2018-04-23T02:40:09.745Z,15.80
2018-04-23T02:42:43.157Z,15.80
2018-04-23T02:45:13.514Z,15.70
2018-04-23T02:47:44.670Z,15.40
2018-04-23T02:50:15.750Z,15.40
2018-04-23T02:52:46.115Z,15.40
2018-04-23T02:55:16.492Z,15.50
2018-04-23T02:57:46.838Z,15.40
2018-04-23T03:00:39.414Z,15.30
2018-04-23T03:03:09.774Z,15.30
2018-04-23T03:05:40.895Z,15.00
2018-04-23T03:08:12.044Z,15.20
2018-04-23T03:10:43.175Z,15.30
2018-04-23T03:13:13.520Z,15.30
2018-04-23T03:15:43.882Z,15.30
2018-04-23T03:18:14.231Z,15.10
2018-04-23T03:20:44.809Z,15.30
2018-04-23T03:23:15.940Z,15.20
2018-04-23T03:25:46.293Z,15.20
2018-04-23T03:28:16.647Z,15.00
2018-04-23T03:31:08.444Z,15.00
2018-04-23T03:36:23.770Z,15.10
2018-04-23T03:39:01.293Z,15.10
2018-04-23T03:41:31.655Z,15.10
2018-04-23T03:44:01.996Z,15.00
2018-04-23T03:46:32.338Z,14.80
2018-04-23T03:49:24.906Z,15.00
2018-04-23T03:51:56.005Z,14.70
2018-04-23T03:54:26.355Z,14.70
2018-04-23T03:57:04.047Z,14.50
2018-04-23T03:59:41.573Z,14.50
2018-04-23T04:02:11.954Z,14.60
2018-04-23T04:04:42.303Z,14.60
2018-04-23T04:07:32.035Z,14.40
2018-04-23T04:10:02.395Z,14.20
2018-04-23T04:13:32.783Z,14.20
2018-04-23T04:16:39.725Z,14.40
2018-04-23T04:19:13.156Z,14.30
2018-04-23T04:21:43.498Z,14.20
2018-04-23T04:24:14.611Z,14.30
2018-04-23T04:26:44.994Z,14.30
2018-04-23T04:29:15.368Z,14.40
2018-04-23T04:31:45.727Z,14.60
2018-04-23T04:34:16.089Z,14.30
2018-04-23T04:36:46.455Z,14.00
2018-04-23T04:39:16.793Z,14.20
2018-04-23T04:41:47.932Z,14.20
2018-04-23T04:44:19.037Z,14.00
2018-04-23T04:47:11.573Z,14.20
2018-04-23T04:49:41.907Z,14.20
2018-04-23T04:52:12.264Z,14.20
2018-04-23T04:54:42.638Z,14.40
2018-04-23T04:57:12.976Z,14.50
2018-04-23T04:59:50.938Z,14.40
2018-04-23T05:02:22.055Z,14.00
2018-04-23T05:04:52.394Z,14.00
2018-04-23T05:07:23.539Z,14.20
2018-04-23T05:09:54.648Z,14.40
2018-04-23T05:12:25.013Z,14.30
2018-04-23T05:14:56.143Z,14.00
2018-04-23T05:17:26.499Z,14.00
2018-04-23T05:19:56.839Z,14.10
2018-04-23T05:22:27.166Z,13.90
2018-04-23T05:24:57.535Z,14.00
2018-04-23T05:27:27.897Z,14.30
2018-04-23T05:29:59.101Z,14.10
2018-04-23T05:32:30.149Z,14.10
2018-04-23T05:35:00.500Z,14.10
2018-04-23T05:37:31.634Z,13.70
2018-04-23T05:40:01.991Z,13.70
2018-04-23T05:42:32.325Z,13.90
2018-04-23T05:45:02.719Z,13.90
2018-04-23T05:47:33.021Z,13.90
2018-04-23T05:50:03.370Z,14.00
2018-04-23T05:52:35.533Z,14.20
2018-04-23T05:55:05.920Z,14.20
2018-04-23T05:57:36.237Z,14.10
2018-04-23T06:00:06.601Z,13.90
2018-04-23T06:02:36.916Z,14.10
2018-04-23T06:05:07.285Z,14.00
2018-04-23T06:07:38.399Z,14.10
2018-04-23T06:10:09.767Z,14.30
2018-04-23T06:12:40.878Z,14.20
2018-04-23T06:15:11.262Z,14.20
2018-04-23T06:17:41.630Z,14.20
2018-04-23T06:20:12.016Z,14.40
2018-04-23T06:22:42.398Z,14.00
2018-04-23T06:25:13.528Z,14.10
2018-04-23T06:27:43.887Z,14.10
2018-04-23T06:30:15.014Z,14.10
2018-04-23T06:32:46.141Z,14.20
2018-04-23T06:35:16.504Z,14.10
2018-04-23T06:37:47.609Z,14.40
2018-04-23T06:40:19.923Z,14.40
2018-04-23T06:42:50.225Z,14.40
2018-04-23T06:45:21.581Z,14.60
2018-04-23T06:47:52.657Z,14.60
2018-04-23T06:50:23.028Z,14.60
2018-04-23T06:52:54.434Z,14.30
2018-04-23T06:55:24.787Z,15.50
2018-04-23T06:57:55.356Z,14.70
2018-04-23T07:00:25.726Z,14.70
2018-04-23T07:03:00.122Z,14.50
2018-04-23T07:05:30.474Z,14.40
2018-04-23T07:08:00.867Z,14.30
2018-04-23T07:10:31.218Z,14.30
2018-04-23T07:13:02.308Z,14.50
2018-04-23T07:15:32.696Z,14.50
2018-04-23T07:18:10.374Z,14.50
2018-04-23T07:20:40.717Z,14.40
2018-04-23T07:23:18.381Z,14.60
2018-04-23T07:25:49.514Z,15.00
2018-04-23T07:28:19.858Z,15.00
2018-04-23T07:30:50.171Z,15.20
2018-04-23T07:33:20.548Z,15.30
2018-04-23T07:35:50.902Z,15.40
2018-04-23T07:38:21.246Z,15.60
2018-04-23T07:40:52.403Z,15.70
2018-04-23T07:43:23.730Z,15.70
2018-04-23T07:45:54.281Z,15.70
2018-04-23T07:48:24.644Z,15.40
2018-04-23T07:53:46.624Z,15.50
2018-04-23T07:56:17.047Z,15.60
2018-04-23T07:58:47.336Z,15.70
2018-04-23T08:01:37.865Z,15.60
2018-04-23T08:04:08.214Z,15.60
2018-04-23T08:06:39.344Z,15.60
2018-04-23T08:09:09.703Z,15.50
2018-04-23T08:11:40.055Z,15.60
2018-04-23T08:14:10.420Z,15.70
2018-04-23T08:16:40.786Z,15.60
2018-04-23T08:19:14.335Z,15.60
2018-04-23T08:21:44.721Z,15.30
2018-04-23T08:24:15.324Z,15.20
2018-04-23T08:26:45.665Z,15.40
2018-04-23T08:29:16.029Z,15.50
2018-04-23T08:31:52.548Z,15.60
2018-04-23T08:34:22.887Z,15.40
2018-04-23T08:36:53.239Z,15.50
2018-04-23T08:39:23.604Z,15.20
2018-04-23T08:41:53.967Z,15.20
2018-04-23T08:44:24.333Z,15.10
2018-04-23T08:46:54.684Z,15.10
2018-04-23T08:49:25.951Z,15.40
2018-04-23T08:51:57.066Z,15.20
2018-04-23T08:54:27.415Z,15.20
2018-04-23T08:56:58.555Z,15.20
2018-04-23T08:59:29.674Z,15.20
2018-04-23T09:02:00.040Z,15.10
2018-04-23T09:04:30.411Z,15.20
2018-04-23T09:07:22.198Z,15.30
2018-04-23T09:09:52.595Z,15.40
2018-04-23T09:12:23.965Z,15.20
2018-04-23T09:14:55.099Z,15.60
2018-04-23T09:17:26.243Z,15.50
2018-04-23T09:19:57.376Z,15.20
2018-04-23T09:22:27.742Z,15.20
2018-04-23T09:24:58.136Z,15.40
2018-04-23T09:27:29.260Z,15.60
2018-04-23T09:29:59.608Z,15.60
2018-04-23T09:32:30.761Z,15.60
2018-04-23T09:35:02.895Z,15.60
2018-04-23T09:37:33.204Z,15.60
2018-04-23T09:40:04.621Z,15.80
2018-04-23T09:42:34.966Z,15.60
2018-04-23T09:45:05.320Z,15.60
2018-04-23T09:47:35.694Z,15.60
2018-04-23T09:50:06.876Z,16.00
2018-04-23T09:52:37.160Z,16.00
2018-04-23T09:55:07.486Z,16.10
2018-04-23T09:57:37.830Z,16.00
2018-04-23T10:00:08.199Z,16.10
2018-04-23T10:02:41.329Z,16.20
2018-04-23T10:05:12.445Z,16.30
2018-04-23T10:07:42.768Z,16.30
2018-04-23T10:10:13.132Z,16.50
2018-04-23T10:12:43.446Z,16.70
2018-04-23T10:15:14.522Z,16.60
2018-04-23T10:18:04.257Z,16.60
2018-04-23T10:20:35.381Z,16.70
2018-04-23T10:23:05.734Z,16.70
2018-04-23T10:25:36.888Z,16.80
2018-04-23T10:28:07.266Z,16.80
2018-04-23T10:30:37.627Z,17.00
2018-04-23T10:33:09.566Z,17.00
2018-04-23T10:35:39.930Z,17.00
2018-04-23T10:38:10.290Z,17.30
2018-04-23T10:40:40.665Z,17.30
2018-04-23T10:43:11.791Z,17.40
2018-04-23T10:45:42.144Z,17.40
2018-04-23T10:48:12.510Z,17.40
2018-04-23T10:50:44.899Z,17.20
2018-04-23T10:53:17.311Z,17.30
2018-04-23T10:55:48.473Z,17.30
2018-04-23T10:58:18.816Z,17.30
2018-04-23T11:00:49.169Z,17.70
2018-04-23T11:03:19.551Z,17.60
2018-04-23T11:05:49.927Z,17.60
2018-04-23T11:08:20.284Z,17.60
2018-04-23T11:10:51.436Z,17.60
2018-04-23T11:13:22.589Z,17.60
2018-04-23T11:15:53.037Z,17.60
2018-04-23T11:18:23.349Z,17.70
2018-04-23T11:20:53.688Z,18.00
2018-04-23T11:23:24.030Z,18.40
2018-04-23T11:25:54.396Z,18.50
2018-04-23T11:28:25.508Z,18.50
2018-04-23T11:30:55.878Z,18.50
2018-04-23T11:33:26.270Z,18.80
2018-04-23T11:35:56.642Z,18.80
2018-04-23T11:38:27.257Z,18.60
2018-04-23T11:40:58.365Z,18.50
2018-04-23T11:43:28.670Z,18.50
2018-04-23T11:45:59.033Z,18.70
2018-04-23T11:48:29.433Z,18.90
2018-04-23T11:51:00.786Z,18.80
2018-04-23T11:53:31.147Z,18.50
2018-04-23T11:56:02.280Z,18.40
2018-04-23T11:58:33.382Z,18.50
2018-04-23T12:03:59.088Z,18.40
2018-04-23T12:06:29.444Z,18.30
2018-04-23T12:09:19.190Z,18.10
2018-04-23T12:11:50.303Z,18.40
2018-04-23T12:14:20.665Z,18.40
2018-04-23T12:16:50.993Z,18.40
2018-04-23T12:19:21.331Z,18.20
2018-04-23T12:21:51.698Z,18.30
2018-04-23T12:24:22.085Z,18.10
2018-04-23T12:26:52.440Z,18.30
2018-04-23T12:29:22.786Z,18.10
2018-04-23T12:31:53.108Z,18.40
2018-04-23T12:34:23.472Z,18.50
2018-04-23T12:36:53.842Z,18.50
2018-04-23T12:39:24.271Z,18.60
2018-04-23T12:41:55.324Z,18.80
2018-04-23T12:44:25.669Z,18.80
2018-04-23T12:46:56.033Z,18.60
2018-04-23T12:49:26.388Z,18.90
2018-04-23T12:51:56.756Z,19.20
2018-04-23T12:54:27.887Z,19.50
2018-04-23T12:56:58.232Z,19.50
2018-04-23T12:59:29.679Z,19.70
2018-04-23T13:02:00.311Z,19.60
2018-04-23T13:04:31.427Z,19.20
2018-04-23T13:07:01.790Z,19.20
2018-04-23T13:09:32.172Z,19.10
2018-04-23T13:12:02.538Z,18.90
2018-04-23T13:14:32.848Z,18.80
2018-04-23T13:17:03.991Z,18.80
2018-04-23T13:19:35.098Z,19.20
2018-04-23T13:22:05.462Z,19.10
2018-04-23T13:24:36.606Z,19.00
2018-04-23T13:27:08.759Z,19.00
2018-04-23T13:29:39.096Z,18.90
2018-04-23T13:32:10.192Z,18.90
2018-04-23T13:35:01.687Z,18.70
2018-04-23T13:37:32.064Z,18.70
2018-04-23T13:40:02.424Z,18.80
2018-04-23T13:42:33.586Z,18.70
2018-04-23T13:45:03.917Z,18.70
2018-04-23T13:47:34.255Z,18.60
2018-04-23T13:50:09.763Z,18.60
2018-04-23T13:52:40.860Z,18.40
2018-04-23T13:55:11.983Z,18.50
2018-04-23T13:57:42.353Z,18.50
2018-04-23T14:00:12.698Z,18.50
2018-04-23T14:02:43.808Z,18.80
2018-04-23T14:05:14.173Z,18.80
2018-04-23T14:07:45.293Z,18.80
2018-04-23T14:10:15.657Z,18.80
2018-04-23T14:12:46.020Z,18.60
2018-04-23T14:15:16.365Z,18.40
2018-04-23T14:17:46.712Z,18.60
2018-04-23T14:20:17.839Z,18.90
2018-04-23T14:22:49.164Z,18.90
2018-04-23T14:25:19.508Z,19.40
2018-04-23T14:27:49.895Z,19.20
2018-04-23T14:30:25.343Z,19.00
2018-04-23T14:32:55.697Z,18.60
2018-04-23T14:35:26.084Z,18.70
2018-04-23T14:37:56.390Z,19.10
2018-04-23T14:40:27.518Z,19.60
2018-04-23T14:42:58.669Z,19.60
2018-04-23T14:45:29.021Z,19.60
2018-04-23T14:47:59.579Z,19.40
2018-04-23T14:50:29.968Z,19.20
2018-04-23T14:53:01.083Z,18.80
2018-04-23T14:55:31.425Z,18.80
2018-04-23T14:58:01.790Z,18.80
2018-04-23T15:00:32.159Z,18.80
2018-04-23T15:03:03.272Z,18.90
2018-04-23T15:05:33.651Z,18.90
2018-04-23T15:08:04.000Z,19.00
2018-04-23T15:10:34.365Z,19.00
2018-04-23T15:13:04.748Z,18.90
2018-04-23T15:15:36.412Z,18.90
2018-04-23T15:18:07.456Z,19.10
2018-04-23T15:20:45.151Z,18.90
2018-04-23T15:23:19.604Z,18.90
2018-04-23T15:25:49.987Z,18.90
2018-04-23T15:28:20.305Z,18.80
2018-04-23T15:30:50.667Z,19.00
2018-04-23T15:33:23.089Z,19.00
2018-04-23T15:35:53.461Z,19.10
2018-04-23T15:38:25.845Z,19.00
2018-04-23T15:40:56.204Z,18.90
2018-04-23T15:43:26.566Z,18.80
2018-04-23T15:45:56.901Z,18.80
2018-04-23T15:48:31.373Z,18.80
2018-04-23T15:51:02.482Z,18.90
2018-04-23T15:53:33.846Z,18.90
2018-04-23T15:56:04.211Z,19.00
2018-04-23T15:58:34.571Z,18.70
2018-04-23T16:01:24.045Z,18.80
2018-04-23T16:03:54.435Z,18.70
2018-04-23T16:06:32.081Z,18.90
2018-04-23T16:11:57.318Z,18.80
2018-04-23T16:14:27.619Z,18.80
2018-04-23T16:17:05.173Z,18.90
2018-04-23T16:19:36.303Z,18.90
2018-04-23T16:22:06.639Z,18.80
2018-04-23T16:24:39.904Z,18.70
2018-04-23T16:27:10.945Z,18.80
2018-04-23T16:29:41.289Z,18.70
2018-04-23T16:32:12.397Z,18.50
2018-04-23T16:34:44.802Z,18.50
2018-04-23T16:37:15.159Z,18.30
2018-04-23T16:39:45.516Z,18.50
2018-04-23T16:42:15.847Z,18.50
2018-04-23T16:45:07.392Z,18.40
2018-04-23T16:47:37.753Z,18.40
2018-04-23T16:50:08.108Z,18.30
2018-04-23T16:52:38.472Z,18.40
2018-04-23T16:55:08.834Z,18.10
2018-04-23T16:57:39.199Z,18.10
2018-04-23T17:00:14.953Z,18.00
2018-04-23T17:03:06.675Z,18.00
2018-04-23T17:05:37.038Z,18.20
2018-04-23T17:08:07.396Z,18.10
2018-04-23T17:10:37.737Z,18.10
2018-04-23T17:13:08.107Z,18.00
2018-04-23T17:15:38.442Z,18.10
2018-04-23T17:18:09.573Z,17.80
2018-04-23T17:20:39.931Z,17.80
2018-04-23T17:23:10.294Z,17.80
2018-04-23T17:25:41.417Z,17.80
2018-04-23T17:28:11.792Z,17.70
2018-04-23T17:30:42.152Z,17.80
2018-04-23T17:33:12.525Z,17.80
2018-04-23T17:35:44.953Z,17.70
2018-04-23T17:38:16.072Z,17.60
2018-04-23T17:40:46.441Z,17.60
2018-04-23T17:43:16.810Z,17.60
2018-04-23T17:45:47.177Z,17.50
2018-04-23T17:48:18.249Z,17.60
2018-04-23T17:50:53.709Z,17.60
2018-04-23T17:53:28.159Z,17.50
2018-04-23T17:55:58.495Z,17.50
2018-04-23T17:58:29.638Z,17.40
2018-04-23T18:00:59.984Z,17.40
2018-04-23T18:03:31.051Z,17.20
2018-04-23T18:06:02.402Z,17.20
2018-04-23T18:08:32.757Z,17.20
2018-04-23T18:11:03.155Z,17.10
2018-04-23T18:13:34.257Z,17.30
2018-04-23T18:16:05.368Z,17.20
2018-04-23T18:18:35.729Z,17.20
2018-04-23T18:21:07.181Z,17.10
2018-04-23T18:23:38.292Z,17.10
2018-04-23T18:26:10.689Z,17.10
2018-04-23T18:28:41.793Z,16.90
2018-04-23T18:31:33.545Z,16.90
2018-04-23T18:34:03.913Z,16.70
2018-04-23T18:36:34.272Z,16.70
2018-04-23T18:39:04.623Z,16.60
2018-04-23T18:41:34.997Z,16.70
2018-04-23T18:44:05.297Z,16.80
2018-04-23T18:46:36.423Z,16.60
2018-04-23T18:49:07.823Z,16.60
2018-04-23T18:51:39.205Z,16.50
2018-04-23T18:54:09.563Z,16.30
2018-04-23T18:56:41.720Z,16.20
2018-04-23T18:59:12.066Z,16.20
2018-04-23T19:01:43.183Z,16.30
2018-04-23T19:04:13.548Z,16.30
2018-04-23T19:06:43.906Z,16.20
2018-04-23T19:09:20.361Z,16.10
2018-04-23T19:11:57.881Z,16.00
2018-04-23T19:14:28.240Z,16.00
2018-04-23T19:16:58.601Z,15.90
2018-04-23T19:19:28.945Z,15.80
2018-04-23T19:21:59.345Z,15.90
2018-04-23T19:24:29.671Z,15.70
2018-04-23T19:27:00.033Z,15.80
2018-04-23T19:29:30.431Z,15.90
2018-04-23T19:32:00.795Z,15.90
2018-04-23T19:34:31.138Z,15.90
2018-04-23T19:37:01.495Z,15.90
2018-04-23T19:39:31.850Z,15.90
2018-04-23T19:42:22.638Z,15.90
2018-04-23T19:44:52.980Z,15.70
2018-04-23T19:47:23.339Z,15.70
2018-04-23T19:49:54.756Z,15.50
2018-04-23T19:52:28.140Z,15.50
2018-04-23T19:55:02.634Z,15.50
2018-04-23T19:57:33.001Z,15.50
2018-04-23T20:00:05.399Z,15.40
2018-04-23T20:02:36.776Z,15.30
2018-04-23T20:05:07.149Z,15.30
2018-04-23T20:07:37.514Z,15.20
2018-04-23T20:10:08.906Z,15.30
2018-04-23T20:12:39.252Z,15.30
2018-04-23T20:15:11.659Z,15.20
2018-04-23T20:17:43.021Z,15.20
2018-04-23T20:20:14.150Z,15.20
2018-04-23T20:22:44.463Z,15.10
2018-04-23T20:28:03.220Z,15.10
2018-04-23T20:30:55.003Z,15.00
2018-04-23T20:33:25.472Z,15.10
2018-04-23T20:35:55.718Z,15.10
2018-04-23T20:38:26.106Z,14.90
2018-04-23T20:40:56.449Z,15.10
2018-04-23T20:43:49.006Z,15.00
2018-04-23T20:46:20.426Z,15.00
2018-04-23T20:48:50.690Z,14.90
2018-04-23T20:51:21.082Z,15.00
2018-04-23T20:53:51.447Z,15.00
2018-04-23T20:56:21.795Z,14.90
2018-04-23T20:58:52.172Z,14.80
2018-04-23T21:01:41.618Z,14.70
2018-04-23T21:04:11.989Z,14.70
2018-04-23T21:06:42.335Z,14.70
2018-04-23T21:09:12.674Z,14.60
2018-04-23T21:11:43.810Z,14.60
2018-04-23T21:14:14.159Z,14.60
2018-04-23T21:16:44.517Z,14.50
2018-04-23T21:19:21.022Z,14.40
2018-04-23T21:21:53.401Z,14.40
2018-04-23T21:24:23.742Z,14.40
2018-04-23T21:26:54.130Z,14.20
2018-04-23T21:29:24.488Z,14.20
2018-04-23T21:31:55.604Z,14.10
2018-04-23T21:34:25.968Z,14.10
2018-04-23T21:36:56.314Z,14.00
2018-04-23T21:39:26.678Z,14.00
2018-04-23T21:41:57.010Z,14.00
2018-04-23T21:44:27.371Z,14.10
2018-04-23T21:46:58.477Z,14.00
2018-04-23T21:49:28.862Z,14.00
2018-04-23T21:51:59.224Z,14.00
2018-04-23T21:54:29.589Z,13.90
2018-04-23T21:57:00.747Z,13.90
2018-04-23T21:59:31.113Z,13.80
2018-04-23T22:02:01.472Z,13.90
2018-04-23T22:04:31.866Z,13.90
2018-04-23T22:07:02.207Z,13.60
2018-04-23T22:09:33.531Z,13.50
2018-04-23T22:12:03.862Z,13.50
2018-04-23T22:14:34.228Z,13.50
2018-04-23T22:17:04.590Z,13.50
2018-04-23T22:19:34.965Z,13.20
2018-04-23T22:22:05.313Z,13.20
2018-04-23T22:24:35.666Z,13.30
2018-04-23T22:27:06.036Z,13.50
2018-04-23T22:29:36.389Z,13.70
2018-04-23T22:32:07.793Z,13.50
2018-04-23T22:34:38.082Z,13.40
2018-04-23T22:37:08.448Z,13.60
2018-04-23T22:39:38.808Z,13.50
2018-04-23T22:42:09.952Z,13.30
2018-04-23T22:44:41.064Z,13.40
2018-04-23T22:47:11.475Z,13.40
2018-04-23T22:49:41.782Z,13.40
2018-04-23T22:52:12.126Z,13.60
2018-04-23T22:54:46.559Z,13.50
2018-04-23T22:57:16.941Z,13.50
2018-04-23T22:59:47.294Z,13.40
2018-04-23T23:02:22.775Z,13.50
2018-04-23T23:04:53.114Z,13.30
2018-04-23T23:07:24.246Z,13.30
2018-04-23T23:09:54.635Z,13.30
2018-04-23T23:12:24.974Z,13.40
2018-04-23T23:14:55.343Z,13.40
2018-04-23T23:17:25.714Z,13.40
2018-04-23T23:20:02.197Z,13.50
2018-04-23T23:22:32.578Z,13.40
2018-04-23T23:25:02.939Z,13.40
2018-04-23T23:27:33.318Z,13.30
2018-04-23T23:30:03.698Z,13.30
2018-04-23T23:32:35.079Z,13.30
2018-04-23T23:35:05.453Z,13.20
2018-04-23T23:37:35.812Z,13.00
2018-04-23T23:40:06.118Z,13.00
2018-04-23T23:42:55.591Z,13.20
2018-04-23T23:45:33.257Z,13.20
2018-04-23T23:48:03.637Z,13.10
2018-04-23T23:50:34.000Z,13.20
2018-04-23T23:53:04.330Z,13.20
2018-04-23T23:55:34.723Z,13.20
2018-04-23T23:58:06.089Z,13.20
